sensor_id;sensor_type;location;lat;lon;timestamp;P1;durP1;ratioP1;P2;durP2;ratioP2
37284;SDS011;23172;53.550;9.964;2023-07-13T00:03:00;541.05;;;344.48;;
37284;SDS011;23172;53.550;9.964;2023-07-13T00:08:02;332.98;;;232.75;;
37284;SDS011;23172;53.550;9.964;2023-07-13T00:13:05;339.10;;;205.15;;
37284;SDS011;23172;53.550;9.964;2023-07-13T00:18:07;258.08;;;112.80;;
37284;SDS011;23172;53.550;9.964;2023-07-13T00:23:09;208.10;;;107.20;;
37284;SDS011;23172;53.550;9.964;2023-07-13T00:28:12;137.13;;;57.35;;
37284;SDS011;23172;53.550;9.964;2023-07-13T00:33:14;121.68;;;48.38;;
37284;SDS011;23172;53.550;9.964;2023-07-13T00:38:16;164.30;;;39.85;;
37284;SDS011;23172;53.550;9.964;2023-07-13T00:43:20;135.50;;;26.92;;
37284;SDS011;23172;53.550;9.964;2023-07-13T00:48:23;102.90;;;21.88;;
37284;SDS011;23172;53.550;9.964;2023-07-13T00:53:29;92.43;;;25.08;;
37284;SDS011;23172;53.550;9.964;2023-07-13T00:58:35;93.78;;;23.00;;
37284;SDS011;23172;53.550;9.964;2023-07-13T01:03:37;68.40;;;13.45;;
37284;SDS011;23172;53.550;9.964;2023-07-13T01:08:40;41.47;;;14.57;;
37284;SDS011;23172;53.550;9.964;2023-07-13T01:13:43;82.30;;;16.08;;
37284;SDS011;23172;53.550;9.964;2023-07-13T01:18:45;62.35;;;13.48;;
37284;SDS011;23172;53.550;9.964;2023-07-13T01:23:48;71.82;;;17.25;;
37284;SDS011;23172;53.550;9.964;2023-07-13T01:28:50;82.18;;;19.42;;
37284;SDS011;23172;53.550;9.964;2023-07-13T01:33:53;60.70;;;14.05;;
37284;SDS011;23172;53.550;9.964;2023-07-13T01:38:56;77.22;;;18.48;;
37284;SDS011;23172;53.550;9.964;2023-07-13T01:43:58;79.15;;;19.05;;
37284;SDS011;23172;53.550;9.964;2023-07-13T01:48:59;67.38;;;17.40;;
37284;SDS011;23172;53.550;9.964;2023-07-13T01:54:03;99.63;;;17.35;;
37284;SDS011;23172;53.550;9.964;2023-07-13T01:59:05;82.85;;;21.17;;
37284;SDS011;23172;53.550;9.964;2023-07-13T02:04:07;79.20;;;18.17;;
37284;SDS011;23172;53.550;9.964;2023-07-13T02:09:12;60.45;;;18.05;;
37284;SDS011;23172;53.550;9.964;2023-07-13T02:14:14;105.40;;;21.63;;
37284;SDS011;23172;53.550;9.964;2023-07-13T02:19:17;132.05;;;17.00;;
37284;SDS011;23172;53.550;9.964;2023-07-13T02:24:20;85.65;;;22.48;;
37284;SDS011;23172;53.550;9.964;2023-07-13T02:29:22;71.50;;;22.70;;
37284;SDS011;23172;53.550;9.964;2023-07-13T02:34:24;100.85;;;19.88;;
37284;SDS011;23172;53.550;9.964;2023-07-13T02:39:28;110.95;;;25.48;;
37284;SDS011;23172;53.550;9.964;2023-07-13T02:44:32;102.70;;;26.38;;
37284;SDS011;23172;53.550;9.964;2023-07-13T02:49:34;100.50;;;22.10;;
37284;SDS011;23172;53.550;9.964;2023-07-13T02:54:38;105.43;;;27.27;;
37284;SDS011;23172;53.550;9.964;2023-07-13T02:59:39;135.50;;;28.00;;
37284;SDS011;23172;53.550;9.964;2023-07-13T03:04:41;104.97;;;28.83;;
37284;SDS011;23172;53.550;9.964;2023-07-13T03:09:44;137.95;;;30.30;;
37284;SDS011;23172;53.550;9.964;2023-07-13T03:14:46;171.15;;;31.60;;
37284;SDS011;23172;53.550;9.964;2023-07-13T03:19:48;150.45;;;36.45;;
37284;SDS011;23172;53.550;9.964;2023-07-13T03:24:54;154.60;;;33.78;;
37284;SDS011;23172;53.550;9.964;2023-07-13T03:29:56;140.00;;;42.80;;
37284;SDS011;23172;53.550;9.964;2023-07-13T03:34:58;139.98;;;36.15;;
37284;SDS011;23172;53.550;9.964;2023-07-13T03:40:01;179.77;;;33.55;;
37284;SDS011;23172;53.550;9.964;2023-07-13T03:45:03;158.85;;;53.00;;
37284;SDS011;23172;53.550;9.964;2023-07-13T03:50:06;141.40;;;40.40;;
37284;SDS011;23172;53.550;9.964;2023-07-13T03:55:10;145.48;;;53.42;;
37284;SDS011;23172;53.550;9.964;2023-07-13T04:00:13;187.88;;;64.88;;
37284;SDS011;23172;53.550;9.964;2023-07-13T04:05:16;175.57;;;76.30;;
37284;SDS011;23172;53.550;9.964;2023-07-13T04:10:19;224.82;;;88.47;;
37284;SDS011;23172;53.550;9.964;2023-07-13T04:15:21;181.07;;;88.30;;
37284;SDS011;23172;53.550;9.964;2023-07-13T04:20:24;223.15;;;82.88;;
37284;SDS011;23172;53.550;9.964;2023-07-13T04:25:27;202.73;;;70.65;;
37284;SDS011;23172;53.550;9.964;2023-07-13T04:30:29;196.05;;;60.78;;
37284;SDS011;23172;53.550;9.964;2023-07-13T04:35:31;206.38;;;68.35;;
37284;SDS011;23172;53.550;9.964;2023-07-13T04:40:34;164.85;;;70.70;;
37284;SDS011;23172;53.550;9.964;2023-07-13T04:45:36;189.05;;;74.57;;
37284;SDS011;23172;53.550;9.964;2023-07-13T04:50:38;213.23;;;76.03;;
37284;SDS011;23172;53.550;9.964;2023-07-13T04:55:42;203.55;;;80.50;;
37284;SDS011;23172;53.550;9.964;2023-07-13T05:00:44;150.52;;;62.63;;
37284;SDS011;23172;53.550;9.964;2023-07-13T05:05:54;178.30;;;52.33;;
37284;SDS011;23172;53.550;9.964;2023-07-13T05:10:58;198.82;;;77.75;;
37284;SDS011;23172;53.550;9.964;2023-07-13T05:16:01;214.05;;;84.95;;
37284;SDS011;23172;53.550;9.964;2023-07-13T05:21:06;302.40;;;124.47;;
37284;SDS011;23172;53.550;9.964;2023-07-13T05:26:11;231.60;;;105.10;;
37284;SDS011;23172;53.550;9.964;2023-07-13T05:31:12;324.60;;;101.28;;
37284;SDS011;23172;53.550;9.964;2023-07-13T05:36:14;161.75;;;78.25;;
37284;SDS011;23172;53.550;9.964;2023-07-13T05:41:18;247.27;;;86.32;;
37284;SDS011;23172;53.550;9.964;2023-07-13T05:46:19;165.68;;;53.35;;
37284;SDS011;23172;53.550;9.964;2023-07-13T05:51:21;150.13;;;54.63;;
37284;SDS011;23172;53.550;9.964;2023-07-13T05:56:25;184.23;;;54.47;;
37284;SDS011;23172;53.550;9.964;2023-07-13T06:01:26;171.85;;;51.50;;
37284;SDS011;23172;53.550;9.964;2023-07-13T06:06:28;200.05;;;66.05;;
37284;SDS011;23172;53.550;9.964;2023-07-13T06:11:31;204.18;;;83.45;;
37284;SDS011;23172;53.550;9.964;2023-07-13T06:16:35;110.68;;;50.55;;
37284;SDS011;23172;53.550;9.964;2023-07-13T06:21:36;218.90;;;74.57;;
37284;SDS011;23172;53.550;9.964;2023-07-13T06:26:40;175.88;;;65.38;;
37284;SDS011;23172;53.550;9.964;2023-07-13T06:31:42;167.10;;;57.47;;
37284;SDS011;23172;53.550;9.964;2023-07-13T06:36:44;164.80;;;56.58;;
37284;SDS011;23172;53.550;9.964;2023-07-13T06:41:47;187.95;;;51.63;;
37284;SDS011;23172;53.550;9.964;2023-07-13T06:46:49;180.95;;;58.05;;
37284;SDS011;23172;53.550;9.964;2023-07-13T06:51:51;154.90;;;67.75;;
37284;SDS011;23172;53.550;9.964;2023-07-13T06:56:54;223.27;;;100.70;;
37284;SDS011;23172;53.550;9.964;2023-07-13T07:01:56;164.52;;;71.28;;
37284;SDS011;23172;53.550;9.964;2023-07-13T07:06:58;264.40;;;119.18;;
37284;SDS011;23172;53.550;9.964;2023-07-13T07:12:01;264.20;;;112.50;;
37284;SDS011;23172;53.550;9.964;2023-07-13T07:17:03;295.75;;;157.90;;
37284;SDS011;23172;53.550;9.964;2023-07-13T07:22:05;284.63;;;162.13;;
37284;SDS011;23172;53.550;9.964;2023-07-13T07:27:08;331.58;;;204.95;;
37284;SDS011;23172;53.550;9.964;2023-07-13T07:32:10;251.73;;;103.35;;
37284;SDS011;23172;53.550;9.964;2023-07-13T07:37:12;271.02;;;169.23;;
37284;SDS011;23172;53.550;9.964;2023-07-13T07:42:17;294.38;;;153.95;;
37284;SDS011;23172;53.550;9.964;2023-07-13T07:47:18;291.27;;;162.93;;
37284;SDS011;23172;53.550;9.964;2023-07-13T07:52:20;414.92;;;228.88;;
37284;SDS011;23172;53.550;9.964;2023-07-13T07:57:24;665.60;;;530.15;;
37284;SDS011;23172;53.550;9.964;2023-07-13T08:02:25;1156.18;;;761.63;;
37284;SDS011;23172;53.550;9.964;2023-07-13T08:07:28;1999.90;;;999.90;;
37284;SDS011;23172;53.550;9.964;2023-07-13T08:12:34;1999.90;;;999.90;;
37284;SDS011;23172;53.550;9.964;2023-07-13T08:17:36;1999.90;;;999.90;;
37284;SDS011;23172;53.550;9.964;2023-07-13T08:22:38;1999.90;;;999.90;;
37284;SDS011;23172;53.550;9.964;2023-07-13T08:27:41;1999.90;;;999.90;;
37284;SDS011;23172;53.550;9.964;2023-07-13T08:32:43;1999.90;;;999.90;;
37284;SDS011;23172;53.550;9.964;2023-07-13T08:37:45;1999.90;;;999.90;;
37284;SDS011;23172;53.550;9.964;2023-07-13T08:42:51;1999.90;;;999.90;;
37284;SDS011;23172;53.550;9.964;2023-07-13T08:47:58;1999.90;;;999.90;;
37284;SDS011;23172;53.550;9.964;2023-07-13T08:53:05;1999.90;;;999.90;;
37284;SDS011;23172;53.550;9.964;2023-07-13T08:58:11;1999.90;;;999.90;;
37284;SDS011;23172;53.550;9.964;2023-07-13T09:03:16;1999.90;;;999.90;;
37284;SDS011;23172;53.550;9.964;2023-07-13T09:18:38;1999.90;;;999.90;;
37284;SDS011;23172;53.550;9.964;2023-07-13T09:23:45;1999.90;;;999.90;;
37284;SDS011;23172;53.550;9.964;2023-07-13T09:28:50;1999.90;;;999.90;;
37284;SDS011;23172;53.550;9.964;2023-07-13T09:33:56;1999.90;;;999.90;;
37284;SDS011;23172;53.550;9.964;2023-07-13T09:38:59;1999.90;;;999.90;;
37284;SDS011;23172;53.550;9.964;2023-07-13T09:44:09;1999.90;;;999.90;;
37284;SDS011;23172;53.550;9.964;2023-07-13T09:49:12;1999.90;;;999.90;;
37284;SDS011;23172;53.550;9.964;2023-07-13T09:54:18;1999.90;;;999.90;;
37284;SDS011;23172;53.550;9.964;2023-07-13T09:59:23;1999.90;;;999.90;;
37284;SDS011;23172;53.550;9.964;2023-07-13T10:04:30;1999.90;;;999.90;;
37284;SDS011;23172;53.550;9.964;2023-07-13T10:09:33;1999.90;;;999.90;;
37284;SDS011;23172;53.550;9.964;2023-07-13T10:14:36;1999.90;;;999.90;;
37284;SDS011;23172;53.550;9.964;2023-07-13T10:19:39;1999.90;;;999.90;;
37284;SDS011;23172;53.550;9.964;2023-07-13T10:24:44;1999.90;;;999.90;;
37284;SDS011;23172;53.550;9.964;2023-07-13T10:29:48;1999.90;;;999.90;;
37284;SDS011;23172;53.550;9.964;2023-07-13T10:34:54;1999.90;;;999.90;;
37284;SDS011;23172;53.550;9.964;2023-07-13T10:45:08;1999.90;;;999.90;;
37284;SDS011;23172;53.550;9.964;2023-07-13T10:50:16;1999.90;;;999.90;;
37284;SDS011;23172;53.550;9.964;2023-07-13T10:55:31;1999.90;;;999.90;;
37284;SDS011;23172;53.550;9.964;2023-07-13T11:00:37;1999.90;;;999.90;;
37284;SDS011;23172;53.550;9.964;2023-07-13T11:05:50;1999.90;;;999.90;;
37284;SDS011;23172;53.550;9.964;2023-07-13T11:16:35;1999.90;;;999.90;;
37284;SDS011;23172;53.550;9.964;2023-07-13T11:22:01;1999.90;;;999.90;;
37284;SDS011;23172;53.550;9.964;2023-07-13T11:27:15;1999.90;;;999.90;;
37284;SDS011;23172;53.550;9.964;2023-07-13T11:32:29;1999.90;;;999.90;;
37284;SDS011;23172;53.550;9.964;2023-07-13T11:37:32;1999.90;;;999.90;;
37284;SDS011;23172;53.550;9.964;2023-07-13T11:42:34;1999.90;;;999.90;;
37284;SDS011;23172;53.550;9.964;2023-07-13T11:47:40;1999.90;;;999.90;;
37284;SDS011;23172;53.550;9.964;2023-07-13T11:52:43;1999.90;;;999.90;;
37284;SDS011;23172;53.550;9.964;2023-07-13T11:57:47;1999.90;;;999.90;;
37284;SDS011;23172;53.550;9.964;2023-07-13T12:02:54;1999.90;;;999.90;;
37284;SDS011;23172;53.550;9.964;2023-07-13T12:07:59;1999.90;;;999.90;;
37284;SDS011;23172;53.550;9.964;2023-07-13T12:13:09;1999.90;;;999.90;;
37284;SDS011;23172;53.550;9.964;2023-07-13T12:18:15;1999.90;;;999.90;;
37284;SDS011;23172;53.550;9.964;2023-07-13T12:23:20;1999.90;;;999.90;;
37284;SDS011;23172;53.550;9.964;2023-07-13T12:28:30;1999.90;;;999.90;;
37284;SDS011;23172;53.550;9.964;2023-07-13T12:33:35;1999.90;;;999.90;;
37284;SDS011;23172;53.550;9.964;2023-07-13T12:38:41;1999.90;;;999.90;;
37284;SDS011;23172;53.550;9.964;2023-07-13T12:43:47;1999.90;;;999.90;;
37284;SDS011;23172;53.550;9.964;2023-07-13T12:48:51;1999.90;;;999.90;;
37284;SDS011;23172;53.550;9.964;2023-07-13T12:53:56;1999.90;;;999.90;;
37284;SDS011;23172;53.550;9.964;2023-07-13T12:59:08;1999.90;;;999.90;;
37284;SDS011;23172;53.550;9.964;2023-07-13T13:04:19;1999.90;;;999.90;;
37284;SDS011;23172;53.550;9.964;2023-07-13T13:09:21;1999.90;;;999.90;;
37284;SDS011;23172;53.550;9.964;2023-07-13T13:14:23;1999.90;;;999.90;;
37284;SDS011;23172;53.550;9.964;2023-07-13T13:19:27;1999.90;;;999.90;;
37284;SDS011;23172;53.550;9.964;2023-07-13T13:24:30;1999.90;;;999.90;;
37284;SDS011;23172;53.550;9.964;2023-07-13T13:29:32;1999.90;;;999.90;;
37284;SDS011;23172;53.550;9.964;2023-07-13T13:34:40;1999.90;;;999.90;;
37284;SDS011;23172;53.550;9.964;2023-07-13T13:39:43;1999.90;;;999.90;;
37284;SDS011;23172;53.550;9.964;2023-07-13T13:44:45;1999.90;;;999.90;;
37284;SDS011;23172;53.550;9.964;2023-07-13T13:49:49;1999.90;;;999.90;;
37284;SDS011;23172;53.550;9.964;2023-07-13T13:54:51;1999.90;;;999.90;;
37284;SDS011;23172;53.550;9.964;2023-07-13T13:59:55;1999.90;;;999.90;;
37284;SDS011;23172;53.550;9.964;2023-07-13T14:04:59;1999.90;;;999.90;;
37284;SDS011;23172;53.550;9.964;2023-07-13T14:10:08;1999.90;;;999.90;;
37284;SDS011;23172;53.550;9.964;2023-07-13T14:15:17;1999.90;;;999.90;;
37284;SDS011;23172;53.550;9.964;2023-07-13T14:20:23;1999.90;;;999.90;;
37284;SDS011;23172;53.550;9.964;2023-07-13T14:25:26;1999.90;;;999.90;;
37284;SDS011;23172;53.550;9.964;2023-07-13T14:30:28;1999.90;;;999.90;;
37284;SDS011;23172;53.550;9.964;2023-07-13T14:35:31;1999.90;;;999.90;;
37284;SDS011;23172;53.550;9.964;2023-07-13T14:40:33;1999.90;;;999.90;;
37284;SDS011;23172;53.550;9.964;2023-07-13T14:45:36;1999.90;;;999.90;;
37284;SDS011;23172;53.550;9.964;2023-07-13T14:50:43;1999.90;;;999.90;;
37284;SDS011;23172;53.550;9.964;2023-07-13T14:55:45;1999.90;;;999.90;;
37284;SDS011;23172;53.550;9.964;2023-07-13T15:00:47;1999.90;;;999.90;;
37284;SDS011;23172;53.550;9.964;2023-07-13T15:05:51;1999.90;;;999.90;;
37284;SDS011;23172;53.550;9.964;2023-07-13T15:10:53;1999.90;;;999.90;;
37284;SDS011;23172;53.550;9.964;2023-07-13T15:15:57;1999.90;;;999.90;;
37284;SDS011;23172;53.550;9.964;2023-07-13T15:21:00;1999.90;;;999.90;;
37284;SDS011;23172;53.550;9.964;2023-07-13T15:26:04;1999.90;;;999.90;;
37284;SDS011;23172;53.550;9.964;2023-07-13T15:31:11;1999.90;;;999.90;;
37284;SDS011;23172;53.550;9.964;2023-07-13T15:36:23;1999.90;;;999.90;;
37284;SDS011;23172;53.550;9.964;2023-07-13T15:41:27;1999.90;;;999.90;;
37284;SDS011;23172;53.550;9.964;2023-07-13T15:46:29;1999.90;;;999.90;;
37284;SDS011;23172;53.550;9.964;2023-07-13T15:51:32;1999.90;;;999.90;;
37284;SDS011;23172;53.550;9.964;2023-07-13T15:56:36;1999.90;;;999.90;;
37284;SDS011;23172;53.550;9.964;2023-07-13T16:01:40;1999.90;;;999.90;;
37284;SDS011;23172;53.550;9.964;2023-07-13T16:06:44;1999.90;;;999.90;;
37284;SDS011;23172;53.550;9.964;2023-07-13T16:11:46;1999.90;;;999.90;;
37284;SDS011;23172;53.550;9.964;2023-07-13T16:16:48;1999.90;;;999.90;;
37284;SDS011;23172;53.550;9.964;2023-07-13T16:21:52;1999.90;;;999.90;;
37284;SDS011;23172;53.550;9.964;2023-07-13T16:26:53;1999.90;;;999.90;;
37284;SDS011;23172;53.550;9.964;2023-07-13T16:31:58;1999.90;;;999.90;;
37284;SDS011;23172;53.550;9.964;2023-07-13T16:37:03;1999.90;;;999.90;;
37284;SDS011;23172;53.550;9.964;2023-07-13T16:42:13;1999.90;;;999.90;;
37284;SDS011;23172;53.550;9.964;2023-07-13T16:47:15;1999.90;;;999.90;;
37284;SDS011;23172;53.550;9.964;2023-07-13T16:52:19;1999.90;;;999.90;;
37284;SDS011;23172;53.550;9.964;2023-07-13T16:57:21;1999.90;;;999.90;;
37284;SDS011;23172;53.550;9.964;2023-07-13T17:02:31;1999.90;;;999.90;;
37284;SDS011;23172;53.550;9.964;2023-07-13T17:07:36;1999.90;;;999.90;;
37284;SDS011;23172;53.550;9.964;2023-07-13T17:12:38;1999.90;;;999.90;;
37284;SDS011;23172;53.550;9.964;2023-07-13T17:17:39;1999.90;;;999.90;;
37284;SDS011;23172;53.550;9.964;2023-07-13T17:22:44;1999.90;;;999.90;;
37284;SDS011;23172;53.550;9.964;2023-07-13T17:27:46;1999.90;;;999.90;;
37284;SDS011;23172;53.550;9.964;2023-07-13T17:32:49;1999.90;;;999.90;;
37284;SDS011;23172;53.550;9.964;2023-07-13T17:37:54;1999.90;;;999.90;;
37284;SDS011;23172;53.550;9.964;2023-07-13T17:42:57;1999.90;;;999.90;;
37284;SDS011;23172;53.550;9.964;2023-07-13T17:48:00;1999.90;;;999.90;;
37284;SDS011;23172;53.550;9.964;2023-07-13T17:53:10;1999.90;;;999.90;;
37284;SDS011;23172;53.550;9.964;2023-07-13T17:58:14;1999.90;;;999.90;;
37284;SDS011;23172;53.550;9.964;2023-07-13T18:03:19;1999.90;;;999.90;;
37284;SDS011;23172;53.550;9.964;2023-07-13T18:08:27;1999.90;;;999.90;;
37284;SDS011;23172;53.550;9.964;2023-07-13T18:13:30;1999.90;;;999.90;;
37284;SDS011;23172;53.550;9.964;2023-07-13T18:18:39;1999.90;;;999.90;;
37284;SDS011;23172;53.550;9.964;2023-07-13T18:23:42;1999.90;;;999.90;;
37284;SDS011;23172;53.550;9.964;2023-07-13T18:28:44;1999.90;;;999.90;;
37284;SDS011;23172;53.550;9.964;2023-07-13T18:33:48;1999.90;;;999.90;;
37284;SDS011;23172;53.550;9.964;2023-07-13T18:38:54;1999.90;;;999.90;;
37284;SDS011;23172;53.550;9.964;2023-07-13T18:43:56;1999.90;;;999.90;;
37284;SDS011;23172;53.550;9.964;2023-07-13T18:48:58;1999.90;;;999.90;;
37284;SDS011;23172;53.550;9.964;2023-07-13T18:54:01;1999.90;;;999.90;;
37284;SDS011;23172;53.550;9.964;2023-07-13T18:59:03;1999.90;;;999.90;;
37284;SDS011;23172;53.550;9.964;2023-07-13T19:04:19;1999.90;;;999.90;;
37284;SDS011;23172;53.550;9.964;2023-07-13T19:09:29;21.38;;;19.27;;
37284;SDS011;23172;53.550;9.964;2023-07-13T19:19:33;9.82;;;8.82;;
37284;SDS011;23172;53.550;9.964;2023-07-13T19:24:36;1806.50;;;935.60;;
37284;SDS011;23172;53.550;9.964;2023-07-13T19:29:39;1999.90;;;727.30;;
37284;SDS011;23172;53.550;9.964;2023-07-13T19:34:42;1999.88;;;929.50;;
37284;SDS011;23172;53.550;9.964;2023-07-13T19:39:45;1999.90;;;792.90;;
37284;SDS011;23172;53.550;9.964;2023-07-13T19:44:53;1999.90;;;999.90;;
37284;SDS011;23172;53.550;9.964;2023-07-13T19:49:55;1997.00;;;944.63;;
37284;SDS011;23172;53.550;9.964;2023-07-13T19:54:59;1258.55;;;768.45;;
37284;SDS011;23172;53.550;9.964;2023-07-13T20:00:05;1999.90;;;902.65;;
37284;SDS011;23172;53.550;9.964;2023-07-13T20:05:08;1999.90;;;940.30;;
37284;SDS011;23172;53.550;9.964;2023-07-13T20:10:17;1492.32;;;778.67;;
37284;SDS011;23172;53.550;9.964;2023-07-13T20:15:20;1794.85;;;874.60;;
37284;SDS011;23172;53.550;9.964;2023-07-13T20:20:25;1622.35;;;859.00;;
37284;SDS011;23172;53.550;9.964;2023-07-13T20:25:30;1310.60;;;812.58;;
37284;SDS011;23172;53.550;9.964;2023-07-13T20:30:33;1427.75;;;844.90;;
37284;SDS011;23172;53.550;9.964;2023-07-13T20:35:36;1999.90;;;930.28;;
37284;SDS011;23172;53.550;9.964;2023-07-13T20:40:40;1999.90;;;898.35;;
37284;SDS011;23172;53.550;9.964;2023-07-13T20:45:43;1162.28;;;807.90;;
37284;SDS011;23172;53.550;9.964;2023-07-13T20:50:45;1999.90;;;970.70;;
37284;SDS011;23172;53.550;9.964;2023-07-13T20:55:49;829.67;;;626.78;;
37284;SDS011;23172;53.550;9.964;2023-07-13T21:00:51;1312.05;;;881.22;;
37284;SDS011;23172;53.550;9.964;2023-07-13T21:05:54;768.22;;;650.38;;
37284;SDS011;23172;53.550;9.964;2023-07-13T21:10:58;1146.82;;;813.78;;
37284;SDS011;23172;53.550;9.964;2023-07-13T21:16:00;732.00;;;625.10;;
37284;SDS011;23172;53.550;9.964;2023-07-13T21:21:07;564.00;;;358.45;;
37284;SDS011;23172;53.550;9.964;2023-07-13T21:26:13;483.23;;;428.95;;
37284;SDS011;23172;53.550;9.964;2023-07-13T21:31:18;533.80;;;406.35;;
37284;SDS011;23172;53.550;9.964;2023-07-13T21:36:22;581.40;;;519.10;;
37284;SDS011;23172;53.550;9.964;2023-07-13T21:41:27;525.67;;;435.10;;
37284;SDS011;23172;53.550;9.964;2023-07-13T21:46:29;577.53;;;476.77;;
37284;SDS011;23172;53.550;9.964;2023-07-13T21:51:31;1999.90;;;999.90;;
37284;SDS011;23172;53.550;9.964;2023-07-13T21:56:36;1999.90;;;999.90;;
37284;SDS011;23172;53.550;9.964;2023-07-13T22:01:38;1748.88;;;999.90;;
37284;SDS011;23172;53.550;9.964;2023-07-13T22:06:40;1923.13;;;999.90;;
37284;SDS011;23172;53.550;9.964;2023-07-13T22:11:44;1788.95;;;999.90;;
37284;SDS011;23172;53.550;9.964;2023-07-13T22:16:47;1485.05;;;989.75;;
37284;SDS011;23172;53.550;9.964;2023-07-13T22:21:49;554.83;;;499.52;;
37284;SDS011;23172;53.550;9.964;2023-07-13T22:26:52;1463.35;;;949.55;;
37284;SDS011;23172;53.550;9.964;2023-07-13T22:31:54;1712.85;;;999.90;;
37284;SDS011;23172;53.550;9.964;2023-07-13T22:36:56;1479.10;;;956.28;;
37284;SDS011;23172;53.550;9.964;2023-07-13T22:42:01;1546.47;;;994.83;;
37284;SDS011;23172;53.550;9.964;2023-07-13T22:47:04;1939.70;;;999.90;;
37284;SDS011;23172;53.550;9.964;2023-07-13T22:52:09;1999.90;;;999.90;;
37284;SDS011;23172;53.550;9.964;2023-07-13T22:57:14;1977.22;;;999.90;;
37284;SDS011;23172;53.550;9.964;2023-07-13T23:02:16;1657.43;;;996.90;;
37284;SDS011;23172;53.550;9.964;2023-07-13T23:07:18;1379.53;;;840.97;;
37284;SDS011;23172;53.550;9.964;2023-07-13T23:12:25;1050.53;;;695.25;;
37284;SDS011;23172;53.550;9.964;2023-07-13T23:17:30;1553.22;;;999.90;;
37284;SDS011;23172;53.550;9.964;2023-07-13T23:22:32;1980.85;;;999.90;;
37284;SDS011;23172;53.550;9.964;2023-07-13T23:27:36;1828.70;;;999.90;;
37284;SDS011;23172;53.550;9.964;2023-07-13T23:32:38;967.97;;;728.22;;
37284;SDS011;23172;53.550;9.964;2023-07-13T23:37:40;653.10;;;524.60;;
37284;SDS011;23172;53.550;9.964;2023-07-13T23:42:44;774.22;;;653.60;;
37284;SDS011;23172;53.550;9.964;2023-07-13T23:47:47;951.95;;;754.50;;
37284;SDS011;23172;53.550;9.964;2023-07-13T23:52:50;981.47;;;811.28;;
37284;SDS011;23172;53.550;9.964;2023-07-13T23:57:55;708.90;;;566.88;;
